createdAt,value
2022-09-02T00:01:31.675Z,15.90
2022-09-02T00:04:05.506Z,15.70
2022-09-02T00:06:32.825Z,15.60
2022-09-02T00:09:01.300Z,15.50
2022-09-02T00:11:32.091Z,15.60
2022-09-02T00:14:04.467Z,15.50
2022-09-02T00:16:33.417Z,15.50
2022-09-02T00:19:02.672Z,15.30
2022-09-02T00:21:33.036Z,15.40
2022-09-02T00:24:02.372Z,15.30
2022-09-02T00:26:29.354Z,15.20
2022-09-02T00:28:56.573Z,15.20
2022-09-02T00:31:25.445Z,15.10
2022-09-02T00:33:53.524Z,15.00
2022-09-02T00:36:20.935Z,14.90
2022-09-02T00:38:48.458Z,15.00
2022-09-02T00:41:15.775Z,15.00
2022-09-02T00:43:52.570Z,14.90
2022-09-02T00:46:23.040Z,14.90
2022-09-02T00:48:56.992Z,14.90
2022-09-02T00:51:24.999Z,14.80
2022-09-02T00:53:52.271Z,14.80
2022-09-02T00:56:27.064Z,15.00
2022-09-02T00:58:55.848Z,14.80
2022-09-02T01:01:23.662Z,14.80
2022-09-02T01:03:51.339Z,14.80
2022-09-02T01:06:24.395Z,14.70
2022-09-02T01:09:03.189Z,14.80
2022-09-02T01:11:43.842Z,14.80
2022-09-02T01:14:13.582Z,14.90
2022-09-02T01:16:54.147Z,14.80
2022-09-02T01:19:26.096Z,14.50
2022-09-02T01:21:56.566Z,14.40
2022-09-02T01:24:30.384Z,14.40
2022-09-02T01:27:00.154Z,14.20
2022-09-02T01:29:29.213Z,14.10
2022-09-02T01:31:56.546Z,14.20
2022-09-02T01:34:23.963Z,14.40
2022-09-02T01:36:51.094Z,14.30
2022-09-02T01:39:18.212Z,14.20
2022-09-02T01:41:45.427Z,14.30
2022-09-02T01:44:12.814Z,14.20
2022-09-02T01:46:39.860Z,14.30
2022-09-02T01:49:06.987Z,14.30
2022-09-02T01:51:33.959Z,14.40
2022-09-02T01:54:00.997Z,14.50
2022-09-02T01:56:28.220Z,14.40
2022-09-02T01:58:55.430Z,14.60
2022-09-02T02:01:22.629Z,14.50
2022-09-02T02:03:50.074Z,14.30
2022-09-02T02:06:18.052Z,14.00
2022-09-02T02:08:45.565Z,13.80
2022-09-02T02:11:19.802Z,13.80
2022-09-02T02:13:47.062Z,13.80
2022-09-02T02:16:14.084Z,13.90
2022-09-02T02:18:41.212Z,13.90
2022-09-02T02:21:08.457Z,13.80
2022-09-02T02:23:35.874Z,13.80
2022-09-02T02:26:03.003Z,14.00
2022-09-02T02:28:30.470Z,14.10
2022-09-02T02:30:58.264Z,14.00
2022-09-02T02:33:30.492Z,14.20
2022-09-02T02:36:05.825Z,14.10
2022-09-02T02:38:38.849Z,14.00
2022-09-02T02:41:06.528Z,14.00
2022-09-02T02:43:36.085Z,14.10
2022-09-02T02:46:03.556Z,14.10
2022-09-02T02:48:30.832Z,14.10
2022-09-02T02:50:57.831Z,14.20
2022-09-02T02:53:24.970Z,14.20
2022-09-02T02:55:52.064Z,14.00
2022-09-02T02:58:19.365Z,14.00
2022-09-02T03:00:46.374Z,14.10
2022-09-02T03:03:14.895Z,13.90
2022-09-02T03:05:41.994Z,13.90
2022-09-02T03:08:10.712Z,14.10
2022-09-02T03:10:41.105Z,14.20
2022-09-02T03:13:10.470Z,14.20
2022-09-02T03:15:39.618Z,14.20
2022-09-02T03:18:09.626Z,14.20
2022-09-02T03:20:37.322Z,14.10
2022-09-02T03:23:04.772Z,13.90
2022-09-02T03:25:38.279Z,13.80
2022-09-02T03:28:05.619Z,13.70
2022-09-02T03:30:36.396Z,13.50
2022-09-02T03:33:05.841Z,13.40
2022-09-02T03:35:34.979Z,13.40
2022-09-02T03:38:01.959Z,13.50
2022-09-02T03:40:30.521Z,13.60
2022-09-02T03:43:00.146Z,13.60
2022-09-02T03:45:28.308Z,13.40
2022-09-02T03:47:55.871Z,13.20
2022-09-02T03:50:31.320Z,13.10
2022-09-02T03:52:59.543Z,13.00
2022-09-02T03:55:27.544Z,13.00
2022-09-02T03:57:54.782Z,12.90
2022-09-02T04:00:25.248Z,12.80
2022-09-02T04:02:55.348Z,12.60
2022-09-02T04:05:23.703Z,12.50
2022-09-02T04:07:53.868Z,12.40
2022-09-02T04:10:22.034Z,12.40
2022-09-02T04:12:50.899Z,12.40
2022-09-02T04:15:19.418Z,12.30
2022-09-02T04:17:46.498Z,12.20
2022-09-02T04:20:14.251Z,12.10
2022-09-02T04:22:41.614Z,12.10
2022-09-02T04:25:10.124Z,12.00
2022-09-02T04:27:37.648Z,12.20
2022-09-02T04:30:06.315Z,12.30
2022-09-02T04:32:37.103Z,12.60
2022-09-02T04:35:07.756Z,12.60
2022-09-02T04:37:35.079Z,12.70
2022-09-02T04:40:02.566Z,12.80
2022-09-02T04:42:29.514Z,12.90
2022-09-02T04:44:57.959Z,12.90
2022-09-02T04:47:26.654Z,12.80
2022-09-02T04:49:54.368Z,12.60
2022-09-02T04:52:21.847Z,12.50
2022-09-02T04:54:49.487Z,12.50
2022-09-02T05:00:40.686Z,12.50
2022-09-02T05:03:07.767Z,12.60
2022-09-02T05:05:35.691Z,12.60
2022-09-02T05:08:04.622Z,12.60
2022-09-02T05:10:33.524Z,12.80
2022-09-02T05:13:00.901Z,12.80
2022-09-02T05:15:28.780Z,12.80
2022-09-02T05:17:55.855Z,12.70
2022-09-02T05:20:24.074Z,12.40
2022-09-02T05:22:51.247Z,12.50
2022-09-02T05:25:18.594Z,12.50
2022-09-02T05:27:45.707Z,12.70
2022-09-02T05:30:13.131Z,12.90
2022-09-02T05:32:42.357Z,13.10
2022-09-02T05:35:09.575Z,13.30
2022-09-02T05:37:36.691Z,13.50
2022-09-02T05:40:05.726Z,13.60
2022-09-02T05:42:35.621Z,13.80
2022-09-02T05:45:02.567Z,13.90
2022-09-02T05:47:29.657Z,13.90
2022-09-02T05:49:56.712Z,13.80
2022-09-02T05:52:23.738Z,13.80
2022-09-02T05:54:50.730Z,13.90
2022-09-02T05:57:18.736Z,14.00
2022-09-02T05:59:47.479Z,14.10
2022-09-02T06:02:17.377Z,14.20
2022-09-02T06:04:49.184Z,14.30
2022-09-02T06:07:20.232Z,14.40
2022-09-02T06:09:48.132Z,14.50
2022-09-02T06:12:20.513Z,14.60
2022-09-02T06:14:50.534Z,14.60
2022-09-02T06:17:17.984Z,14.70
2022-09-02T06:19:44.991Z,14.90
2022-09-02T06:22:12.034Z,15.00
2022-09-02T06:24:39.956Z,15.00
2022-09-02T06:27:07.366Z,15.20
2022-09-02T06:29:34.886Z,15.30
2022-09-02T06:32:02.497Z,15.40
2022-09-02T06:34:29.891Z,15.50
2022-09-02T06:36:57.772Z,15.60
2022-09-02T06:39:25.992Z,15.70
2022-09-02T06:41:53.291Z,15.80
2022-09-02T06:44:21.764Z,15.90
2022-09-02T06:46:55.947Z,16.00
2022-09-02T06:49:25.883Z,16.10
2022-09-02T06:51:56.949Z,16.20
2022-09-02T06:54:24.860Z,16.30
2022-09-02T06:56:52.186Z,16.20
2022-09-02T06:59:21.382Z,16.30
2022-09-02T07:01:49.899Z,16.30
2022-09-02T07:04:36.548Z,16.40
2022-09-02T07:07:12.431Z,16.50
2022-09-02T07:09:40.024Z,16.60
2022-09-02T07:12:07.050Z,16.70
2022-09-02T07:14:43.847Z,16.80
2022-09-02T07:17:17.782Z,16.80
2022-09-02T07:19:45.544Z,16.70
2022-09-02T07:22:12.569Z,16.70
2022-09-02T07:24:41.721Z,16.80
2022-09-02T07:27:08.765Z,16.90
2022-09-02T07:29:36.184Z,17.00
2022-09-02T07:32:03.978Z,17.00
2022-09-02T07:34:31.239Z,17.30
2022-09-02T07:37:03.314Z,17.30
2022-09-02T07:39:33.225Z,17.40
2022-09-02T07:42:00.547Z,17.40
2022-09-02T07:44:28.020Z,17.60
2022-09-02T07:46:55.088Z,17.80
2022-09-02T07:49:24.389Z,17.90
2022-09-02T07:51:52.561Z,18.10
2022-09-02T07:54:22.906Z,18.30
2022-09-02T07:56:52.007Z,18.40
2022-09-02T07:59:21.799Z,18.50
2022-09-02T08:01:49.116Z,18.60
2022-09-02T08:04:16.807Z,18.70
2022-09-02T08:06:45.159Z,18.70
2022-09-02T08:09:13.036Z,18.80
2022-09-02T08:11:45.169Z,19.00
2022-09-02T08:14:18.139Z,19.00
2022-09-02T08:16:47.415Z,19.30
2022-09-02T08:19:15.586Z,19.30
2022-09-02T08:21:42.796Z,19.40
2022-09-02T08:24:10.290Z,19.60
2022-09-02T08:26:38.333Z,19.60
2022-09-02T08:29:08.127Z,19.60
2022-09-02T08:31:38.628Z,19.90
2022-09-02T08:34:06.106Z,20.00
2022-09-02T08:36:33.055Z,20.20
2022-09-02T08:39:04.207Z,20.30
2022-09-02T08:41:43.267Z,20.50
2022-09-02T08:44:15.382Z,20.70
2022-09-02T08:46:42.869Z,20.70
2022-09-02T08:49:40.675Z,20.60
2022-09-02T08:52:07.872Z,20.80
2022-09-02T08:55:02.628Z,20.90
2022-09-02T08:57:31.650Z,21.10
2022-09-02T09:00:02.571Z,21.20
2022-09-02T09:02:56.885Z,21.30
2022-09-02T09:05:31.998Z,21.30
2022-09-02T09:08:31.948Z,21.30
2022-09-02T09:11:23.352Z,21.50
2022-09-02T09:14:25.891Z,21.70
2022-09-02T09:16:59.358Z,21.80
2022-09-02T09:19:46.494Z,22.10
2022-09-02T09:22:20.668Z,22.10
2022-09-02T09:24:50.817Z,22.00
2022-09-02T09:27:24.973Z,21.90
2022-09-02T09:29:53.509Z,22.10
2022-09-02T09:32:47.281Z,22.30
2022-09-02T09:35:18.192Z,22.40
2022-09-02T09:37:50.844Z,22.50
2022-09-02T09:40:27.065Z,22.50
2022-09-02T09:43:14.794Z,22.50
2022-09-02T09:45:48.014Z,22.90
2022-09-02T09:48:23.824Z,23.30
2022-09-02T09:50:56.645Z,23.30
2022-09-02T09:53:28.532Z,23.50
2022-09-02T09:56:13.567Z,23.70
2022-09-02T09:58:41.479Z,23.90
2022-09-02T10:01:20.080Z,23.90
2022-09-02T10:04:42.804Z,24.20
2022-09-02T10:07:13.560Z,24.50
2022-09-02T10:09:41.461Z,24.20
2022-09-02T10:12:33.729Z,23.70
2022-09-02T10:15:00.695Z,23.90
2022-09-02T10:18:18.645Z,24.30
2022-09-02T10:24:31.898Z,24.20
2022-09-02T10:27:00.471Z,24.50
2022-09-02T10:29:36.720Z,24.40
2022-09-02T10:32:12.906Z,24.10
2022-09-02T10:34:58.254Z,24.30
2022-09-02T10:37:38.506Z,24.10
2022-09-02T10:40:25.363Z,24.10
2022-09-02T10:43:10.518Z,24.10
2022-09-02T10:45:46.199Z,23.90
2022-09-02T10:48:31.291Z,23.90
2022-09-02T10:51:39.518Z,24.40
2022-09-02T10:54:53.105Z,24.90
2022-09-02T10:57:53.005Z,25.10
2022-09-02T11:00:23.168Z,25.10
2022-09-02T11:02:58.990Z,25.10
2022-09-02T11:05:43.927Z,25.20
2022-09-02T11:08:53.029Z,25.30
2022-09-02T11:11:47.370Z,24.90
2022-09-02T11:14:32.956Z,25.00
2022-09-02T11:17:37.451Z,25.20
2022-09-02T11:20:27.254Z,25.20
2022-09-02T11:23:19.157Z,24.90
2022-09-02T11:26:11.268Z,25.40
2022-09-02T11:28:59.833Z,25.40
2022-09-02T11:31:58.476Z,25.50
2022-09-02T11:34:35.048Z,25.30
2022-09-02T11:37:23.728Z,25.20
2022-09-02T11:40:33.391Z,25.20
2022-09-02T11:44:01.911Z,24.80
2022-09-02T11:46:36.295Z,25.30
2022-09-02T11:49:32.713Z,25.60
2022-09-02T11:52:10.754Z,25.50
2022-09-02T11:54:43.256Z,25.20
2022-09-02T11:57:23.784Z,25.30
2022-09-02T11:59:51.403Z,25.20
2022-09-02T12:02:45.788Z,25.40
2022-09-02T12:05:31.462Z,25.70
2022-09-02T12:08:04.320Z,25.80
2022-09-02T12:10:43.582Z,25.80
2022-09-02T12:16:21.219Z,26.30
2022-09-02T12:18:54.527Z,26.10
2022-09-02T12:21:26.882Z,26.10
2022-09-02T12:23:56.005Z,26.50
2022-09-02T12:26:37.502Z,26.30
2022-09-02T12:29:34.890Z,26.00
2022-09-02T12:32:02.781Z,26.00
2022-09-02T12:34:29.814Z,25.80
2022-09-02T12:37:03.621Z,25.90
2022-09-02T12:39:35.284Z,26.10
2022-09-02T12:42:12.686Z,25.80
2022-09-02T12:45:10.172Z,25.80
2022-09-02T12:48:18.883Z,26.20
2022-09-02T12:51:04.501Z,26.10
2022-09-02T12:53:42.460Z,25.90
2022-09-02T12:56:25.347Z,25.90
2022-09-02T12:59:00.163Z,25.90
2022-09-02T13:02:13.181Z,26.10
2022-09-02T13:05:19.583Z,26.50
2022-09-02T13:08:02.508Z,26.40
2022-09-02T13:11:39.147Z,26.10
2022-09-02T13:14:59.242Z,26.00
2022-09-02T13:18:11.623Z,26.30
2022-09-02T13:20:55.823Z,26.70
2022-09-02T13:23:58.494Z,26.40
2022-09-02T13:26:55.007Z,26.20
2022-09-02T13:29:52.742Z,26.10
2022-09-02T13:32:19.686Z,26.10
2022-09-02T13:34:49.556Z,26.10
2022-09-02T13:37:33.777Z,26.20
2022-09-02T13:40:23.900Z,26.20
2022-09-02T13:43:03.531Z,26.00
2022-09-02T13:45:36.043Z,26.20
2022-09-02T13:48:09.249Z,26.10
2022-09-02T13:50:37.498Z,26.00
2022-09-02T13:55:58.249Z,26.40
2022-09-02T13:58:31.107Z,26.50
2022-09-02T14:01:21.533Z,26.20
2022-09-02T14:03:52.050Z,26.20
2022-09-02T14:06:27.181Z,26.40
2022-09-02T14:08:59.775Z,26.50
2022-09-02T14:11:29.863Z,26.20
2022-09-02T14:13:58.167Z,26.10
2022-09-02T14:16:34.025Z,26.10
2022-09-02T14:19:24.977Z,25.90
2022-09-02T14:21:53.389Z,26.10
2022-09-02T14:24:27.424Z,26.10
2022-09-02T14:26:57.173Z,25.90
2022-09-02T14:29:26.791Z,25.90
2022-09-02T14:32:26.341Z,25.90
2022-09-02T14:35:23.302Z,26.10
2022-09-02T14:37:59.143Z,26.30
2022-09-02T14:40:37.066Z,26.60
2022-09-02T14:43:05.096Z,26.50
2022-09-02T14:45:35.118Z,26.40
2022-09-02T14:48:24.346Z,26.40
2022-09-02T14:51:03.827Z,26.30
2022-09-02T14:53:31.960Z,26.30
2022-09-02T14:55:59.719Z,26.40
2022-09-02T14:58:28.429Z,26.50
2022-09-02T15:01:01.591Z,26.20
2022-09-02T15:03:31.522Z,26.30
2022-09-02T15:05:59.100Z,26.30
2022-09-02T15:08:26.145Z,26.40
2022-09-02T15:10:54.827Z,26.40
2022-09-02T15:13:30.618Z,26.30
2022-09-02T15:15:59.413Z,26.30
2022-09-02T15:18:26.636Z,26.40
2022-09-02T15:20:54.260Z,26.30
2022-09-02T15:23:22.175Z,26.10
2022-09-02T15:25:49.219Z,26.10
2022-09-02T15:28:16.356Z,26.10
2022-09-02T15:30:45.385Z,25.90
2022-09-02T15:33:16.757Z,26.00
2022-09-02T15:35:47.470Z,26.10
2022-09-02T15:38:14.903Z,26.10
2022-09-02T15:40:41.975Z,26.20
2022-09-02T15:43:08.952Z,26.30
2022-09-02T15:45:45.963Z,26.20
2022-09-02T15:48:13.323Z,26.10
2022-09-02T15:50:40.519Z,26.20
2022-09-02T15:53:08.855Z,26.00
2022-09-02T15:55:37.989Z,26.00
2022-09-02T15:58:04.994Z,25.90
2022-09-02T16:00:35.003Z,25.90
2022-09-02T16:03:02.092Z,25.90
2022-09-02T16:05:32.339Z,26.00
2022-09-02T16:08:01.548Z,25.70
2022-09-02T16:10:29.996Z,25.70
2022-09-02T16:12:59.799Z,25.60
2022-09-02T16:15:27.535Z,25.70
2022-09-02T16:17:54.477Z,25.60
2022-09-02T16:20:22.188Z,25.60
2022-09-02T16:22:49.132Z,25.40
2022-09-02T16:25:16.430Z,25.30
2022-09-02T16:27:53.451Z,25.30
2022-09-02T16:30:21.819Z,25.30
2022-09-02T16:32:50.707Z,25.30
2022-09-02T16:35:18.725Z,25.10
2022-09-02T16:37:46.115Z,25.20
2022-09-02T16:40:21.154Z,25.10
2022-09-02T16:42:48.733Z,25.10
2022-09-02T16:45:15.794Z,25.00
2022-09-02T16:47:44.775Z,24.90
2022-09-02T16:50:12.664Z,24.90
2022-09-02T16:52:41.079Z,24.80
2022-09-02T16:55:08.406Z,24.70
2022-09-02T16:57:35.466Z,24.60
2022-09-02T17:00:04.071Z,24.70
2022-09-02T17:02:31.299Z,24.80
2022-09-02T17:04:58.323Z,24.80
2022-09-02T17:07:25.288Z,24.70
2022-09-02T17:09:52.297Z,24.60
2022-09-02T17:12:19.348Z,24.50
2022-09-02T17:14:47.169Z,24.40
2022-09-02T17:17:17.071Z,24.20
2022-09-02T17:19:45.144Z,24.30
2022-09-02T17:22:13.232Z,24.20
2022-09-02T17:24:42.302Z,24.10
2022-09-02T17:27:09.527Z,24.00
2022-09-02T17:29:51.933Z,23.90
2022-09-02T17:32:20.755Z,23.70
2022-09-02T17:34:53.428Z,23.40
2022-09-02T17:37:22.200Z,23.40
2022-09-02T17:39:50.016Z,23.20
2022-09-02T17:42:17.182Z,23.00
2022-09-02T17:44:44.976Z,23.00
2022-09-02T17:47:20.093Z,22.90
2022-09-02T17:49:48.131Z,22.70
2022-09-02T17:52:22.284Z,22.50
2022-09-02T17:54:52.341Z,22.40
2022-09-02T17:57:41.747Z,22.30
2022-09-02T18:00:17.545Z,22.30
2022-09-02T18:03:42.426Z,22.10
2022-09-02T18:06:33.526Z,22.10
2022-09-02T18:09:03.360Z,22.00
2022-09-02T18:11:31.139Z,21.90
2022-09-02T18:14:13.086Z,21.80
2022-09-02T18:17:24.355Z,21.60
2022-09-02T18:20:13.700Z,21.30
2022-09-02T18:23:20.043Z,21.10
2022-09-02T18:26:31.427Z,20.80
2022-09-02T18:29:36.745Z,20.80
2022-09-02T18:32:48.318Z,20.80
2022-09-02T18:35:50.965Z,20.70
2022-09-02T18:38:39.843Z,20.60
2022-09-02T18:41:37.930Z,20.40
2022-09-02T18:44:47.499Z,20.60
2022-09-02T18:47:44.686Z,20.40
2022-09-02T18:50:49.603Z,20.20
2022-09-02T18:53:30.292Z,20.10
2022-09-02T18:56:07.839Z,20.10
2022-09-02T18:58:51.630Z,19.90
2022-09-02T19:01:30.081Z,19.70
2022-09-02T19:04:00.939Z,19.60
2022-09-02T19:06:36.161Z,19.50
2022-09-02T19:09:09.787Z,19.40
2022-09-02T19:11:39.347Z,19.30
2022-09-02T19:14:16.487Z,19.40
2022-09-02T19:16:45.601Z,19.50
2022-09-02T19:19:14.047Z,19.50
2022-09-02T19:22:04.313Z,19.30
2022-09-02T19:24:48.319Z,19.20
2022-09-02T19:27:28.002Z,19.40
2022-09-02T19:30:12.509Z,19.60
2022-09-02T19:32:47.474Z,19.50
2022-09-02T19:35:20.016Z,19.40
2022-09-02T19:37:51.635Z,19.40
2022-09-02T19:40:41.906Z,19.40
2022-09-02T19:43:12.861Z,19.50
2022-09-02T19:45:40.139Z,19.40
2022-09-02T19:48:11.275Z,19.40
2022-09-02T19:50:42.228Z,19.20
2022-09-02T19:53:17.341Z,19.20
2022-09-02T19:55:45.586Z,19.20
2022-09-02T19:58:13.987Z,19.20
2022-09-02T20:00:42.515Z,19.20
2022-09-02T20:03:11.395Z,19.20
2022-09-02T20:05:40.723Z,19.20
2022-09-02T20:08:11.350Z,19.20
2022-09-02T20:10:39.855Z,19.30
2022-09-02T20:13:07.292Z,19.30
2022-09-02T20:15:38.135Z,19.20
2022-09-02T20:18:14.922Z,19.20
2022-09-02T20:20:44.770Z,19.00
2022-09-02T20:23:17.025Z,19.00
2022-09-02T20:26:05.876Z,18.90
2022-09-02T20:29:03.619Z,18.90
2022-09-02T20:32:13.706Z,18.90
2022-09-02T20:35:14.023Z,18.90
2022-09-02T20:38:04.316Z,18.90
2022-09-02T20:40:45.930Z,18.80
2022-09-02T20:43:47.333Z,18.60
2022-09-02T20:46:30.975Z,18.50
2022-09-02T20:49:54.314Z,18.40
2022-09-02T20:53:08.323Z,18.50
2022-09-02T20:55:54.715Z,18.40
2022-09-02T20:59:21.644Z,18.40
2022-09-02T21:01:50.965Z,18.40
2022-09-02T21:04:32.387Z,18.10
2022-09-02T21:07:17.382Z,18.00
2022-09-02T21:09:51.782Z,18.10
2022-09-02T21:12:44.034Z,18.10
2022-09-02T21:15:30.209Z,18.20
2022-09-02T21:18:28.866Z,18.40
2022-09-02T21:21:10.888Z,18.40
2022-09-02T21:23:50.703Z,18.40
2022-09-02T21:26:58.326Z,18.40
2022-09-02T21:29:46.196Z,18.40
2022-09-02T21:32:41.429Z,18.50
2022-09-02T21:35:24.949Z,18.50
2022-09-02T21:38:23.410Z,18.30
2022-09-02T21:40:59.321Z,18.30
2022-09-02T21:43:44.351Z,18.40
2022-09-02T21:46:42.822Z,18.40
2022-09-02T21:50:25.420Z,18.30
2022-09-02T21:53:09.790Z,18.20
2022-09-02T21:55:53.434Z,18.10
2022-09-02T21:58:43.663Z,18.20
2022-09-02T22:01:43.993Z,18.30
2022-09-02T22:04:41.354Z,18.20
2022-09-02T22:07:22.441Z,18.30
2022-09-02T22:10:07.138Z,18.50
2022-09-02T22:12:40.145Z,18.50
2022-09-02T22:15:13.386Z,18.40
2022-09-02T22:18:10.978Z,18.50
2022-09-02T22:20:45.029Z,18.60
2022-09-02T22:23:25.656Z,18.50
2022-09-02T22:26:08.302Z,18.50
2022-09-02T22:28:43.151Z,18.60
2022-09-02T22:31:16.263Z,18.60
2022-09-02T22:33:55.910Z,18.70
2022-09-02T22:36:56.300Z,18.70
2022-09-02T22:39:50.270Z,18.70
2022-09-02T22:42:31.167Z,18.80
2022-09-02T22:45:31.574Z,18.70
2022-09-02T22:49:00.895Z,18.80
2022-09-02T22:52:17.408Z,18.80
2022-09-02T22:54:44.407Z,18.80
2022-09-02T22:57:57.264Z,18.70
2022-09-02T23:00:25.865Z,18.70
2022-09-02T23:03:18.245Z,18.70
2022-09-02T23:06:28.565Z,18.70
2022-09-02T23:08:56.586Z,18.80
2022-09-02T23:11:47.908Z,18.70
2022-09-02T23:14:35.052Z,18.40
2022-09-02T23:17:27.090Z,18.10
2022-09-02T23:20:08.923Z,18.10
2022-09-02T23:23:06.946Z,18.10
2022-09-02T23:25:55.233Z,17.90
2022-09-02T23:28:39.104Z,18.10
2022-09-02T23:31:50.697Z,18.10
2022-09-02T23:35:11.404Z,18.00
2022-09-02T23:38:00.326Z,18.30
2022-09-02T23:40:39.060Z,18.00
2022-09-02T23:43:06.107Z,17.90
2022-09-02T23:45:34.827Z,17.90
2022-09-02T23:48:25.930Z,17.90
2022-09-02T23:51:31.731Z,18.00
2022-09-02T23:54:31.278Z,17.80
2022-09-02T23:57:15.183Z,17.70
